createdAt,value
2022-10-09T00:01:21.012Z,6.90
2022-10-09T00:03:51.544Z,6.90
2022-10-09T00:06:22.513Z,6.90
2022-10-09T00:08:50.892Z,6.80
2022-10-09T00:11:21.257Z,6.80
2022-10-09T00:13:50.033Z,6.70
2022-10-09T00:16:21.082Z,6.70
2022-10-09T00:18:49.993Z,6.80
2022-10-09T00:21:21.053Z,6.70
2022-10-09T00:23:49.467Z,6.80
2022-10-09T00:26:18.180Z,6.80
2022-10-09T00:28:47.114Z,6.80
2022-10-09T00:31:16.333Z,6.70
2022-10-09T00:33:45.945Z,6.60
2022-10-09T00:36:16.323Z,6.60
2022-10-09T00:38:44.699Z,6.60
2022-10-09T00:41:16.278Z,6.50
2022-10-09T00:43:47.384Z,6.50
2022-10-09T00:46:26.481Z,6.50
2022-10-09T00:49:00.684Z,6.50
2022-10-09T00:51:30.397Z,6.50
2022-10-09T00:53:59.434Z,6.60
2022-10-09T00:56:28.350Z,6.50
2022-10-09T00:58:58.737Z,6.40
2022-10-09T01:01:26.855Z,6.40
2022-10-09T01:03:56.506Z,6.40
2022-10-09T01:06:33.618Z,6.40
2022-10-09T01:09:06.640Z,6.40
2022-10-09T01:11:42.439Z,6.30
2022-10-09T01:14:20.154Z,6.30
2022-10-09T01:16:57.566Z,6.30
2022-10-09T01:19:51.139Z,6.30
2022-10-09T01:22:39.555Z,6.30
2022-10-09T01:25:10.301Z,6.30
2022-10-09T01:27:41.940Z,6.30
2022-10-09T01:30:12.759Z,6.20
2022-10-09T01:32:46.796Z,6.20
2022-10-09T01:35:16.918Z,6.20
2022-10-09T01:37:47.321Z,6.20
2022-10-09T01:40:18.568Z,6.20
2022-10-09T01:42:48.380Z,6.20
2022-10-09T01:45:17.676Z,6.10
2022-10-09T01:47:46.376Z,6.10
2022-10-09T01:50:21.261Z,6.00
2022-10-09T01:52:52.593Z,6.00
2022-10-09T01:55:29.960Z,6.00
2022-10-09T01:58:06.027Z,6.10
2022-10-09T02:00:38.131Z,6.00
2022-10-09T02:03:10.008Z,6.00
2022-10-09T02:05:40.070Z,5.90
2022-10-09T02:08:09.152Z,5.90
2022-10-09T02:10:39.260Z,5.90
2022-10-09T02:13:09.732Z,5.90
2022-10-09T02:15:43.343Z,5.90
2022-10-09T02:18:14.528Z,5.90
2022-10-09T02:20:46.387Z,5.80
2022-10-09T02:23:16.033Z,5.80
2022-10-09T02:25:44.744Z,5.90
2022-10-09T02:28:14.292Z,5.90
2022-10-09T02:30:49.268Z,5.80
2022-10-09T02:33:17.486Z,5.90
2022-10-09T02:35:46.132Z,5.90
2022-10-09T02:38:14.681Z,5.80
2022-10-09T02:40:42.774Z,5.70
2022-10-09T02:43:10.898Z,5.70
2022-10-09T02:45:40.462Z,5.60
2022-10-09T02:48:08.805Z,5.60
2022-10-09T02:50:37.118Z,5.60
2022-10-09T02:53:05.289Z,5.60
2022-10-09T02:55:33.454Z,5.70
2022-10-09T02:58:01.635Z,5.70
2022-10-09T03:00:29.754Z,5.70
2022-10-09T03:02:59.368Z,5.70
2022-10-09T03:05:27.662Z,5.70
2022-10-09T03:07:55.806Z,5.60
2022-10-09T03:10:23.942Z,5.60
2022-10-09T03:12:52.254Z,5.50
2022-10-09T03:15:20.485Z,5.50
2022-10-09T03:17:48.668Z,5.50
2022-10-09T03:20:18.393Z,5.40
2022-10-09T03:22:46.740Z,5.50
2022-10-09T03:25:15.378Z,5.50
2022-10-09T03:27:43.477Z,5.50
2022-10-09T03:30:12.209Z,5.40
2022-10-09T03:32:40.361Z,5.40
2022-10-09T03:35:09.211Z,5.40
2022-10-09T03:37:38.785Z,5.40
2022-10-09T03:40:08.029Z,5.40
2022-10-09T03:42:36.132Z,5.30
2022-10-09T03:45:05.745Z,5.30
2022-10-09T03:47:33.833Z,5.40
2022-10-09T03:50:01.986Z,5.40
2022-10-09T03:52:30.084Z,5.30
2022-10-09T03:54:59.579Z,5.30
2022-10-09T03:57:27.685Z,5.20
2022-10-09T03:59:55.826Z,5.30
2022-10-09T04:02:23.978Z,5.20
2022-10-09T04:04:52.116Z,5.20
2022-10-09T04:07:20.611Z,5.30
2022-10-09T04:09:48.672Z,5.30
2022-10-09T04:12:18.162Z,5.20
2022-10-09T04:14:46.308Z,5.30
2022-10-09T04:17:14.818Z,5.30
2022-10-09T04:19:42.896Z,5.30
2022-10-09T04:22:11.181Z,5.20
2022-10-09T04:24:39.268Z,5.20
2022-10-09T04:27:07.421Z,5.10
2022-10-09T04:29:37.163Z,5.10
2022-10-09T04:32:05.335Z,5.10
2022-10-09T04:34:33.671Z,5.10
2022-10-09T04:37:01.811Z,5.10
2022-10-09T04:39:29.950Z,5.20
2022-10-09T04:41:58.020Z,5.10
2022-10-09T04:44:26.266Z,5.00
2022-10-09T04:46:55.794Z,5.00
2022-10-09T04:49:23.897Z,5.00
2022-10-09T04:51:52.082Z,5.00
2022-10-09T04:54:20.163Z,5.00
2022-10-09T04:56:48.396Z,5.10
2022-10-09T04:59:16.503Z,5.00
2022-10-09T05:01:44.715Z,5.00
2022-10-09T05:04:14.203Z,5.00
2022-10-09T05:06:42.354Z,4.90
2022-10-09T05:09:10.433Z,5.00
2022-10-09T05:11:42.466Z,4.90
2022-10-09T05:14:11.342Z,4.90
2022-10-09T05:17:01.308Z,5.00
2022-10-09T05:19:29.122Z,4.90
2022-10-09T05:21:57.300Z,4.90
2022-10-09T05:24:25.454Z,4.90
2022-10-09T05:26:53.579Z,4.90
2022-10-09T05:29:21.963Z,4.90
2022-10-09T05:31:50.211Z,4.90
2022-10-09T05:34:18.320Z,4.90
2022-10-09T05:36:47.814Z,4.90
2022-10-09T05:39:15.902Z,4.90
2022-10-09T05:41:44.022Z,5.00
2022-10-09T05:44:12.753Z,4.90
2022-10-09T05:46:41.110Z,5.00
2022-10-09T05:49:12.077Z,5.00
2022-10-09T05:51:42.754Z,4.90
2022-10-09T05:54:15.805Z,4.90
2022-10-09T05:56:45.458Z,5.00
2022-10-09T05:59:15.204Z,5.00
2022-10-09T06:01:45.386Z,5.00
2022-10-09T06:04:15.212Z,5.00
2022-10-09T06:06:44.174Z,5.00
2022-10-09T06:09:14.127Z,5.20
2022-10-09T06:11:42.542Z,5.20
2022-10-09T06:14:12.684Z,5.30
2022-10-09T06:16:43.010Z,5.30
2022-10-09T06:19:13.640Z,5.30
2022-10-09T06:21:42.760Z,5.30
2022-10-09T06:24:22.175Z,5.40
2022-10-09T06:26:52.616Z,5.40
2022-10-09T06:29:20.783Z,5.50
2022-10-09T06:31:48.857Z,5.50
2022-10-09T06:34:16.945Z,5.60
2022-10-09T06:36:45.142Z,5.50
2022-10-09T06:39:14.667Z,5.60
2022-10-09T06:41:42.766Z,5.70
2022-10-09T06:44:31.272Z,5.70
2022-10-09T06:46:59.392Z,5.80
2022-10-09T06:49:27.879Z,5.80
2022-10-09T06:51:55.946Z,5.90
2022-10-09T06:54:25.442Z,5.90
2022-10-09T06:56:55.196Z,6.10
2022-10-09T06:59:23.321Z,6.20
2022-10-09T07:01:51.479Z,6.20
2022-10-09T07:04:19.727Z,6.30
2022-10-09T07:06:48.785Z,6.30
2022-10-09T07:09:17.700Z,6.40
2022-10-09T07:11:49.164Z,6.50
2022-10-09T07:14:18.129Z,6.60
2022-10-09T07:16:48.559Z,6.70
2022-10-09T07:19:18.293Z,6.80
2022-10-09T07:21:48.918Z,6.80
2022-10-09T07:24:18.121Z,6.90
2022-10-09T07:26:48.225Z,6.90
2022-10-09T07:29:18.585Z,7.00
2022-10-09T07:31:46.922Z,7.10
2022-10-09T07:34:15.229Z,7.10
2022-10-09T07:36:43.596Z,7.20
2022-10-09T07:39:11.742Z,7.30
2022-10-09T07:41:39.942Z,7.30
2022-10-09T07:44:12.063Z,7.40
2022-10-09T07:46:40.329Z,7.60
2022-10-09T07:49:08.592Z,7.60
2022-10-09T07:51:36.981Z,7.70
2022-10-09T07:54:05.432Z,7.80
2022-10-09T07:56:35.276Z,7.90
2022-10-09T07:59:05.260Z,7.90
2022-10-09T08:01:36.490Z,8.10
2022-10-09T08:04:05.122Z,8.20
2022-10-09T08:06:34.184Z,8.20
2022-10-09T08:09:04.483Z,8.30
2022-10-09T08:11:32.998Z,8.40
2022-10-09T08:14:01.126Z,8.50
2022-10-09T08:16:29.506Z,8.60
2022-10-09T08:19:00.955Z,8.70
2022-10-09T08:21:29.623Z,8.70
2022-10-09T08:23:59.189Z,8.80
2022-10-09T08:26:29.828Z,8.90
2022-10-09T08:29:00.455Z,9.10
2022-10-09T08:31:29.374Z,9.10
2022-10-09T08:34:01.450Z,9.20
2022-10-09T08:36:30.039Z,9.30
2022-10-09T08:38:58.151Z,9.40
2022-10-09T08:41:43.356Z,9.50
2022-10-09T08:44:17.992Z,9.60
2022-10-09T08:46:57.566Z,9.70
2022-10-09T08:49:32.191Z,9.80
2022-10-09T08:52:06.698Z,9.90
2022-10-09T08:54:37.073Z,9.90
2022-10-09T08:57:11.805Z,10.00
2022-10-09T08:59:39.942Z,10.10
2022-10-09T09:02:32.711Z,10.20
2022-10-09T09:05:20.677Z,10.40
2022-10-09T09:07:56.886Z,10.40
2022-10-09T09:10:36.348Z,10.60
2022-10-09T09:13:15.157Z,10.60
2022-10-09T09:15:48.402Z,10.70
2022-10-09T09:18:31.001Z,10.80
2022-10-09T09:21:06.130Z,10.90
2022-10-09T09:23:40.034Z,11.00
2022-10-09T09:26:14.365Z,11.10
2022-10-09T09:28:43.363Z,11.20
2022-10-09T09:31:17.999Z,11.30
2022-10-09T09:33:52.505Z,11.40
2022-10-09T09:36:26.351Z,11.40
2022-10-09T09:39:40.783Z,11.50
2022-10-09T09:41:45.130Z,11.50
2022-10-09T09:44:15.933Z,11.60
2022-10-09T09:46:47.307Z,11.70
2022-10-09T09:49:20.051Z,11.80
2022-10-09T09:51:51.587Z,12.00
2022-10-09T09:54:23.583Z,12.00
2022-10-09T09:57:12.088Z,12.20
2022-10-09T09:59:44.089Z,12.20
2022-10-09T10:02:15.824Z,12.30
2022-10-09T10:04:52.501Z,12.40
2022-10-09T10:07:33.235Z,12.40
2022-10-09T10:10:07.153Z,12.40
2022-10-09T10:12:40.345Z,12.40
2022-10-09T10:15:19.136Z,12.60
2022-10-09T10:17:48.847Z,12.70
2022-10-09T10:20:18.273Z,12.60
2022-10-09T10:22:53.195Z,12.90
2022-10-09T10:25:25.565Z,13.00
2022-10-09T10:27:59.221Z,13.10
2022-10-09T10:30:27.349Z,13.10
2022-10-09T10:33:03.424Z,13.30
2022-10-09T10:35:35.184Z,13.30
2022-10-09T10:38:11.411Z,13.30
2022-10-09T10:40:46.110Z,13.30
2022-10-09T10:43:34.594Z,13.30
2022-10-09T10:46:11.130Z,13.20
2022-10-09T10:48:42.658Z,13.30
2022-10-09T10:51:31.934Z,13.40
2022-10-09T10:54:12.488Z,13.50
2022-10-09T10:56:46.548Z,13.60
2022-10-09T10:59:30.121Z,13.90
2022-10-09T11:02:26.406Z,14.00
2022-10-09T11:05:01.088Z,14.00
2022-10-09T11:07:37.781Z,13.80
2022-10-09T11:10:14.674Z,13.90
2022-10-09T11:12:50.116Z,14.20
2022-10-09T11:15:30.828Z,14.20
2022-10-09T11:18:09.431Z,14.40
2022-10-09T11:20:53.903Z,14.40
2022-10-09T11:23:35.220Z,14.30
2022-10-09T11:26:14.262Z,14.50
2022-10-09T11:28:50.229Z,14.30
2022-10-09T11:31:23.041Z,14.40
2022-10-09T11:33:54.082Z,14.20
2022-10-09T11:36:28.455Z,14.40
2022-10-09T11:39:03.261Z,14.50
2022-10-09T11:41:33.451Z,14.50
2022-10-09T11:44:24.060Z,14.60
2022-10-09T11:47:01.627Z,14.60
2022-10-09T11:49:37.310Z,14.60
2022-10-09T11:52:17.831Z,14.60
2022-10-09T11:54:45.969Z,14.50
2022-10-09T11:57:15.739Z,14.40
2022-10-09T11:59:45.000Z,14.50
2022-10-09T12:02:26.055Z,14.50
2022-10-09T12:04:55.883Z,14.50
2022-10-09T12:07:33.152Z,14.40
2022-10-09T12:10:05.750Z,14.40
2022-10-09T12:12:37.779Z,14.60
2022-10-09T12:15:28.322Z,14.70
2022-10-09T12:17:56.576Z,14.70
2022-10-09T12:20:27.157Z,14.70
2022-10-09T12:25:52.372Z,14.90
2022-10-09T12:28:30.065Z,15.00
2022-10-09T12:31:00.659Z,14.90
2022-10-09T12:33:35.612Z,14.90
2022-10-09T12:36:07.447Z,14.90
2022-10-09T12:38:35.598Z,15.00
2022-10-09T12:41:07.247Z,15.10
2022-10-09T12:43:37.350Z,15.00
2022-10-09T12:46:05.602Z,14.90
2022-10-09T12:48:40.567Z,15.00
2022-10-09T12:51:16.287Z,15.00
2022-10-09T12:53:48.499Z,15.30
2022-10-09T12:56:22.799Z,15.30
2022-10-09T12:58:53.791Z,15.20
2022-10-09T13:01:22.821Z,15.20
2022-10-09T13:03:57.040Z,15.40
2022-10-09T13:06:27.763Z,15.40
2022-10-09T13:08:59.664Z,15.40
2022-10-09T13:11:34.043Z,15.50
2022-10-09T13:14:03.756Z,15.60
2022-10-09T13:16:41.467Z,15.70
2022-10-09T13:19:23.300Z,15.60
2022-10-09T13:22:19.000Z,15.70
2022-10-09T13:24:48.146Z,15.70
2022-10-09T13:27:16.401Z,15.80
2022-10-09T13:29:46.535Z,15.90
2022-10-09T13:32:15.880Z,15.80
2022-10-09T13:34:44.560Z,15.90
2022-10-09T13:37:14.904Z,15.90
2022-10-09T13:39:43.106Z,15.80
2022-10-09T13:42:13.848Z,15.90
2022-10-09T13:44:42.054Z,15.90
2022-10-09T13:47:13.180Z,15.90
2022-10-09T13:49:41.366Z,16.00
2022-10-09T13:52:10.119Z,16.00
2022-10-09T13:54:38.382Z,16.10
2022-10-09T13:57:06.510Z,16.00
2022-10-09T13:59:34.651Z,16.10
2022-10-09T14:02:02.900Z,16.10
2022-10-09T14:04:32.360Z,16.00
2022-10-09T14:07:00.552Z,15.80
2022-10-09T14:09:29.936Z,15.80
2022-10-09T14:11:58.068Z,15.90
2022-10-09T14:14:26.291Z,15.90
2022-10-09T14:16:54.370Z,15.90
2022-10-09T14:19:27.093Z,16.00
2022-10-09T14:21:58.001Z,16.00
2022-10-09T14:24:26.982Z,15.90
2022-10-09T14:26:55.130Z,15.80
2022-10-09T14:29:23.345Z,15.80
2022-10-09T14:31:52.388Z,15.90
2022-10-09T14:34:20.648Z,15.80
2022-10-09T14:36:48.952Z,15.90
2022-10-09T14:39:18.576Z,15.90
2022-10-09T14:41:46.980Z,16.00
2022-10-09T14:44:15.600Z,16.00
2022-10-09T14:46:43.698Z,16.00
2022-10-09T14:49:12.194Z,16.00
2022-10-09T14:51:41.523Z,16.00
2022-10-09T14:54:10.581Z,15.90
2022-10-09T14:56:40.352Z,15.90
2022-10-09T14:59:08.790Z,16.00
2022-10-09T15:01:37.097Z,16.00
2022-10-09T15:04:06.213Z,16.00
2022-10-09T15:06:35.115Z,16.00
2022-10-09T15:09:06.075Z,16.10
2022-10-09T15:11:36.209Z,16.10
2022-10-09T15:14:06.477Z,16.00
2022-10-09T15:16:34.876Z,16.00
2022-10-09T15:19:04.578Z,16.00
2022-10-09T15:21:35.405Z,15.80
2022-10-09T15:24:06.000Z,15.70
2022-10-09T15:26:36.712Z,15.70
2022-10-09T15:29:08.150Z,15.70
2022-10-09T15:31:38.556Z,15.70
2022-10-09T15:34:08.031Z,15.60
2022-10-09T15:36:39.593Z,15.70
2022-10-09T15:39:08.889Z,15.70
2022-10-09T15:41:39.532Z,15.70
2022-10-09T15:44:20.363Z,15.70
2022-10-09T15:46:50.271Z,15.50
2022-10-09T15:49:18.538Z,15.40
2022-10-09T15:51:46.919Z,15.30
2022-10-09T15:54:15.503Z,15.20
2022-10-09T15:56:43.706Z,15.10
2022-10-09T15:59:16.726Z,14.90
2022-10-09T16:01:45.397Z,14.80
2022-10-09T16:04:15.641Z,14.80
2022-10-09T16:06:43.799Z,14.70
2022-10-09T16:09:12.036Z,14.70
2022-10-09T16:11:40.353Z,14.60
2022-10-09T16:14:08.661Z,14.50
2022-10-09T16:16:38.190Z,14.50
2022-10-09T16:19:06.465Z,14.40
2022-10-09T16:21:34.777Z,14.30
2022-10-09T16:24:02.935Z,14.10
2022-10-09T16:26:31.608Z,14.10
2022-10-09T16:29:01.064Z,13.90
2022-10-09T16:31:31.525Z,13.80
2022-10-09T16:34:01.358Z,13.80
2022-10-09T16:36:30.076Z,13.70
2022-10-09T16:38:59.198Z,13.60
2022-10-09T16:41:27.839Z,13.50
2022-10-09T16:43:57.560Z,13.40
2022-10-09T16:46:27.526Z,13.30
2022-10-09T16:48:56.921Z,13.10
2022-10-09T16:51:28.420Z,13.00
2022-10-09T16:54:00.469Z,12.80
2022-10-09T16:56:30.726Z,12.70
2022-10-09T16:59:02.496Z,12.60
2022-10-09T17:01:31.004Z,12.50
2022-10-09T17:04:02.361Z,12.30
2022-10-09T17:06:31.993Z,12.30
2022-10-09T17:09:01.052Z,12.20
2022-10-09T17:11:30.872Z,12.10
2022-10-09T17:13:59.719Z,11.90
2022-10-09T17:16:30.257Z,11.90
2022-10-09T17:18:58.925Z,11.80
2022-10-09T17:21:30.973Z,11.70
2022-10-09T17:24:05.989Z,11.60
2022-10-09T17:26:34.863Z,11.40
2022-10-09T17:29:03.612Z,11.50
2022-10-09T17:31:32.184Z,11.40
2022-10-09T17:34:02.507Z,11.30
2022-10-09T17:36:32.760Z,11.30
2022-10-09T17:39:01.115Z,11.30
2022-10-09T17:41:30.901Z,11.20
2022-10-09T17:44:00.657Z,11.10
2022-10-09T17:46:30.460Z,11.00
2022-10-09T17:48:59.622Z,11.00
2022-10-09T17:51:29.774Z,10.90
2022-10-09T17:53:59.247Z,10.90
2022-10-09T17:56:27.429Z,10.80
2022-10-09T17:58:57.089Z,10.70
2022-10-09T18:01:25.347Z,10.60
2022-10-09T18:03:53.690Z,10.60
2022-10-09T18:06:23.837Z,10.50
2022-10-09T18:08:54.031Z,10.50
2022-10-09T18:11:24.000Z,10.40
2022-10-09T18:13:53.125Z,10.50
2022-10-09T18:16:35.218Z,10.50
2022-10-09T18:19:05.740Z,10.40
2022-10-09T18:21:34.794Z,10.30
2022-10-09T18:24:02.943Z,10.20
2022-10-09T18:26:31.086Z,10.20
2022-10-09T18:28:59.545Z,10.10
2022-10-09T18:31:29.310Z,10.10
2022-10-09T18:33:58.688Z,10.00
2022-10-09T18:36:31.387Z,10.00
2022-10-09T18:39:02.602Z,10.00
2022-10-09T18:41:30.895Z,10.00
2022-10-09T18:44:01.091Z,9.90
2022-10-09T18:46:35.060Z,9.90
2022-10-09T18:49:04.034Z,10.00
2022-10-09T18:51:32.824Z,9.90
2022-10-09T18:54:04.365Z,9.80
2022-10-09T18:56:33.937Z,9.90
2022-10-09T18:59:04.721Z,9.90
2022-10-09T19:01:34.659Z,9.80
2022-10-09T19:04:02.849Z,9.70
2022-10-09T19:06:31.016Z,9.70
2022-10-09T19:09:00.869Z,9.70
2022-10-09T19:11:30.032Z,9.60
2022-10-09T19:14:00.143Z,9.50
2022-10-09T19:16:28.331Z,9.50
2022-10-09T19:18:58.064Z,9.40
2022-10-09T19:21:26.680Z,9.40
2022-10-09T19:23:55.732Z,9.40
2022-10-09T19:26:24.581Z,9.30
2022-10-09T19:28:53.378Z,9.20
2022-10-09T19:31:21.554Z,9.20
2022-10-09T19:33:49.692Z,9.10
2022-10-09T19:36:19.300Z,9.10
2022-10-09T19:38:47.469Z,9.10
2022-10-09T19:41:16.773Z,9.10
2022-10-09T19:43:45.204Z,9.10
2022-10-09T19:46:17.172Z,9.20
2022-10-09T19:48:46.197Z,9.10
2022-10-09T19:51:15.946Z,9.10
2022-10-09T19:53:45.722Z,9.00
2022-10-09T19:56:15.336Z,8.90
2022-10-09T19:58:45.354Z,8.80
2022-10-09T20:01:14.103Z,8.80
2022-10-09T20:03:42.939Z,8.80
2022-10-09T20:06:11.956Z,8.70
2022-10-09T20:08:41.500Z,8.70
2022-10-09T20:11:11.913Z,8.70
2022-10-09T20:13:41.491Z,8.70
2022-10-09T20:16:12.101Z,8.70
2022-10-09T20:18:42.363Z,8.70
2022-10-09T20:21:11.802Z,8.80
2022-10-09T20:23:40.627Z,8.80
2022-10-09T20:26:12.737Z,8.70
2022-10-09T20:28:41.773Z,8.70
2022-10-09T20:31:14.626Z,8.70
2022-10-09T20:33:43.698Z,8.80
2022-10-09T20:36:20.165Z,8.80
2022-10-09T20:38:48.413Z,8.80
2022-10-09T20:41:18.053Z,8.70
2022-10-09T20:43:46.304Z,8.70
2022-10-09T20:46:15.761Z,8.50
2022-10-09T20:48:44.479Z,8.60
2022-10-09T20:51:12.655Z,8.50
2022-10-09T20:53:41.162Z,8.50
2022-10-09T20:56:12.177Z,8.60
2022-10-09T20:58:42.128Z,8.60
2022-10-09T21:01:12.285Z,8.50
2022-10-09T21:03:40.629Z,8.60
2022-10-09T21:06:14.003Z,8.60
2022-10-09T21:08:42.355Z,8.50
2022-10-09T21:11:13.085Z,8.60
2022-10-09T21:13:42.706Z,8.60
2022-10-09T21:16:12.511Z,8.50
2022-10-09T21:18:41.189Z,8.40
2022-10-09T21:21:11.328Z,8.40
2022-10-09T21:23:40.077Z,8.50
2022-10-09T21:26:12.722Z,8.50
2022-10-09T21:28:42.286Z,8.50
2022-10-09T21:31:11.395Z,8.40
2022-10-09T21:33:39.790Z,8.50
2022-10-09T21:36:12.000Z,8.50
2022-10-09T21:38:40.481Z,8.50
2022-10-09T21:41:08.570Z,8.50
2022-10-09T21:43:36.705Z,8.40
2022-10-09T21:46:06.492Z,8.40
2022-10-09T21:48:34.655Z,8.30
2022-10-09T21:51:04.108Z,8.30
2022-10-09T21:53:32.276Z,8.30
2022-10-09T21:56:00.514Z,8.30
2022-10-09T21:58:28.639Z,8.30
2022-10-09T22:00:57.325Z,8.20
2022-10-09T22:03:27.460Z,8.10
2022-10-09T22:05:55.706Z,8.20
2022-10-09T22:08:24.710Z,8.10
2022-10-09T22:10:52.923Z,8.10
2022-10-09T22:13:21.737Z,8.10
2022-10-09T22:15:51.338Z,8.00
2022-10-09T22:18:19.942Z,8.00
2022-10-09T22:20:51.881Z,7.90
2022-10-09T22:23:21.538Z,7.90
2022-10-09T22:25:58.392Z,7.70
2022-10-09T22:28:26.760Z,7.80
2022-10-09T22:31:02.898Z,7.60
2022-10-09T22:33:31.240Z,7.80
2022-10-09T22:36:09.764Z,7.70
2022-10-09T22:38:38.445Z,7.70
2022-10-09T22:41:08.806Z,7.70
2022-10-09T22:43:37.505Z,7.60
2022-10-09T22:46:07.317Z,7.60
2022-10-09T22:48:35.796Z,7.50
2022-10-09T22:51:06.015Z,7.50
2022-10-09T22:53:36.351Z,7.50
2022-10-09T22:56:05.966Z,7.50
2022-10-09T22:58:34.126Z,7.50
2022-10-09T23:01:05.204Z,7.50
2022-10-09T23:03:33.469Z,7.50
2022-10-09T23:06:12.074Z,7.40
2022-10-09T23:08:43.149Z,7.50
2022-10-09T23:11:12.108Z,7.50
2022-10-09T23:13:40.435Z,7.70
2022-10-09T23:16:11.056Z,7.50
2022-10-09T23:18:39.649Z,7.40
2022-10-09T23:21:10.314Z,7.40
2022-10-09T23:23:38.428Z,7.20
2022-10-09T23:26:09.906Z,7.20
2022-10-09T23:28:38.807Z,7.20
2022-10-09T23:31:10.814Z,7.30
2022-10-09T23:33:40.392Z,7.30
2022-10-09T23:36:10.133Z,7.20
2022-10-09T23:38:38.652Z,7.20
2022-10-09T23:41:09.993Z,7.10
2022-10-09T23:43:39.473Z,7.00
2022-10-09T23:46:09.600Z,7.00
2022-10-09T23:48:37.876Z,7.00
2022-10-09T23:51:06.907Z,6.90
2022-10-09T23:53:35.784Z,6.90
2022-10-09T23:56:14.456Z,6.90
2022-10-09T23:58:42.566Z,7.00
